Portrush, United Kingdom
Current Conditions -  °F | °C
As of 4:20 PM on Monday 20 Oct 2014 (Local Time) from EGAE Reporting Station
Broken Clouds Broken Clouds  
Wind Chill: 57°   Ceiling: 3000
Heat Index: 57°   Visibility: 6mi
Dew Point: 52°   Wind: 13mph
Humidity: 82%   Direction: 200°SSW
Pressure: 29.62"   Gusts: NA
Location:  55.2°N, 6.65°W
Report Text: EGAE 201520Z 20011KT 160V230 9999 SCT015 BKN030 14/11 Q1003
Loading
Personal Weather Stations






























Interactive Weather Map
Tropical Storm Tracking
New forecast layout! Learn more

10-Day Weather Forecast

Advertisements
Track Severe Weather on mobile